ΕΜΥ, Εθνική Μετεωρολογική Υπηρεσία - Δελτία Καιρού, Προγνώσεις

ΑΕΡΟΝΑΥΤΙΛΙΑ

GREEK AIRPORTS CODES

LGTT 141830Z AUTO 00000KT //// -RA ////// 14/14 Q1013 RE// RMK 0.5MM=

EUROPEAN AIRPORTS CODES

LFPO 150430Z 36009KT 9999 -RA BKN011 BKN020 05/03 Q0997TEMPO 3000 RA BKN007=